sensor_id;sensor_type;location;lat;lon;timestamp;pressure;altitude;pressure_sealevel;temperature
64600;BMP280;6553;48.412;9.514;2024-03-02T00:00:19;71610.44;;;19.34
64600;BMP280;6553;48.412;9.514;2024-03-02T00:02:49;71613.09;;;19.37
64600;BMP280;6553;48.412;9.514;2024-03-02T00:05:21;71617.03;;;19.35
64600;BMP280;6553;48.412;9.514;2024-03-02T00:07:56;71611.38;;;19.38
64600;BMP280;6553;48.412;9.514;2024-03-02T00:10:26;71608.63;;;19.38
64600;BMP280;6553;48.412;9.514;2024-03-02T00:12:56;71613.22;;;19.34
64600;BMP280;6553;48.412;9.514;2024-03-02T00:15:40;71608.72;;;19.35
64600;BMP280;6553;48.412;9.514;2024-03-02T00:18:18;71609.91;;;19.34
64600;BMP280;6553;48.412;9.514;2024-03-02T00:20:44;71606.59;;;19.33
64600;BMP280;6553;48.412;9.514;2024-03-02T00:23:15;71611.59;;;19.33
64600;BMP280;6553;48.412;9.514;2024-03-02T00:25:48;71615.84;;;19.37
64600;BMP280;6553;48.412;9.514;2024-03-02T00:28:27;71605.97;;;19.35
64600;BMP280;6553;48.412;9.514;2024-03-02T00:33:45;71613.09;;;19.37
64600;BMP280;6553;48.412;9.514;2024-03-02T00:36:17;71609.91;;;19.34
64600;BMP280;6553;48.412;9.514;2024-03-02T00:38:49;71613.75;;;19.35
64600;BMP280;6553;48.412;9.514;2024-03-02T00:41:27;71611.06;;;19.32
64600;BMP280;6553;48.412;9.514;2024-03-02T00:46:34;71602.25;;;19.32
64600;BMP280;6553;48.412;9.514;2024-03-02T00:49:02;71609.91;;;19.34
64600;BMP280;6553;48.412;9.514;2024-03-02T00:51:31;71609.91;;;19.34
64600;BMP280;6553;48.412;9.514;2024-03-02T00:54:01;71608.22;;;19.35
64600;BMP280;6553;48.412;9.514;2024-03-02T00:56:30;71612.53;;;19.36
64600;BMP280;6553;48.412;9.514;2024-03-02T00:58:56;71613.09;;;19.37
64600;BMP280;6553;48.412;9.514;2024-03-02T01:01:23;71605.53;;;19.32
64600;BMP280;6553;48.412;9.514;2024-03-02T01:03:50;71609.91;;;19.34
64600;BMP280;6553;48.412;9.514;2024-03-02T01:06:16;71610.97;;;19.35
64600;BMP280;6553;48.412;9.514;2024-03-02T01:08:43;71615.44;;;19.34
64600;BMP280;6553;48.412;9.514;2024-03-02T01:11:09;71610.03;;;19.31
64600;BMP280;6553;48.412;9.514;2024-03-02T01:13:35;71605.53;;;19.32
64600;BMP280;6553;48.412;9.514;2024-03-02T01:16:01;71609.91;;;19.34
64600;BMP280;6553;48.412;9.514;2024-03-02T01:18:28;71602.25;;;19.32
64600;BMP280;6553;48.412;9.514;2024-03-02T01:20:54;71610.56;;;19.32
64600;BMP280;6553;48.412;9.514;2024-03-02T01:23:25;71606.59;;;19.33
64600;BMP280;6553;48.412;9.514;2024-03-02T01:25:51;71605.53;;;19.32
64600;BMP280;6553;48.412;9.514;2024-03-02T01:28:18;71605.00;;;19.32
64600;BMP280;6553;48.412;9.514;2024-03-02T01:30:48;71603.97;;;19.31
64600;BMP280;6553;48.412;9.514;2024-03-02T01:33:14;71606.19;;;19.30
64600;BMP280;6553;48.412;9.514;2024-03-02T01:35:39;71604.50;;;19.31
64600;BMP280;6553;48.412;9.514;2024-03-02T01:38:05;71603.44;;;19.30
64600;BMP280;6553;48.412;9.514;2024-03-02T01:40:34;71605.44;;;19.35
64600;BMP280;6553;48.412;9.514;2024-03-02T01:43:00;71607.78;;;19.32
64600;BMP280;6553;48.412;9.514;2024-03-02T01:45:26;71608.28;;;19.32
64600;BMP280;6553;48.412;9.514;2024-03-02T01:47:52;71606.72;;;19.31
64600;BMP280;6553;48.412;9.514;2024-03-02T01:50:29;71607.13;;;19.34
64600;BMP280;6553;48.412;9.514;2024-03-02T01:52:59;71608.84;;;19.33
64600;BMP280;6553;48.412;9.514;2024-03-02T01:55:25;71612.66;;;19.34
64600;BMP280;6553;48.412;9.514;2024-03-02T01:57:52;71610.44;;;19.34
64600;BMP280;6553;48.412;9.514;2024-03-02T02:00:19;71608.28;;;19.32
64600;BMP280;6553;48.412;9.514;2024-03-02T02:02:47;71598.50;;;19.28
64600;BMP280;6553;48.412;9.514;2024-03-02T02:05:13;71606.72;;;19.31
64600;BMP280;6553;48.412;9.514;2024-03-02T02:07:43;71602.34;;;19.29
64600;BMP280;6553;48.412;9.514;2024-03-02T02:10:10;71608.28;;;19.32
64600;BMP280;6553;48.412;9.514;2024-03-02T02:12:37;71600.75;;;19.28
64600;BMP280;6553;48.412;9.514;2024-03-02T02:15:04;71606.72;;;19.31
64600;BMP280;6553;48.412;9.514;2024-03-02T02:17:46;71610.03;;;19.31
64600;BMP280;6553;48.412;9.514;2024-03-02T02:20:12;71605.66;;;19.30
64600;BMP280;6553;48.412;9.514;2024-03-02T02:22:38;71606.19;;;19.30
64600;BMP280;6553;48.412;9.514;2024-03-02T02:25:04;71600.13;;;19.30
64600;BMP280;6553;48.412;9.514;2024-03-02T02:27:29;71599.59;;;19.29
64600;BMP280;6553;48.412;9.514;2024-03-02T02:29:56;71608.97;;;19.30
64600;BMP280;6553;48.412;9.514;2024-03-02T02:32:21;71596.94;;;19.27
64600;BMP280;6553;48.412;9.514;2024-03-02T02:34:52;71605.66;;;19.30
64600;BMP280;6553;48.412;9.514;2024-03-02T02:37:18;71605.53;;;19.32
64600;BMP280;6553;48.412;9.514;2024-03-02T02:39:44;71608.84;;;19.33
64600;BMP280;6553;48.412;9.514;2024-03-02T02:42:12;71603.44;;;19.30
64600;BMP280;6553;48.412;9.514;2024-03-02T02:44:37;71597.47;;;19.27
64600;BMP280;6553;48.412;9.514;2024-03-02T02:47:03;71608.28;;;19.32
64600;BMP280;6553;48.412;9.514;2024-03-02T02:49:29;71604.50;;;19.31
64600;BMP280;6553;48.412;9.514;2024-03-02T02:51:54;71606.19;;;19.30
64600;BMP280;6553;48.412;9.514;2024-03-02T02:54:20;71606.31;;;19.28
64600;BMP280;6553;48.412;9.514;2024-03-02T02:56:46;71600.66;;;19.30
64600;BMP280;6553;48.412;9.514;2024-03-02T02:59:11;71606.31;;;19.28
64600;BMP280;6553;48.412;9.514;2024-03-02T03:01:37;71600.75;;;19.28
64600;BMP280;6553;48.412;9.514;2024-03-02T03:04:03;71603.03;;;19.27
64600;BMP280;6553;48.412;9.514;2024-03-02T03:06:29;71598.50;;;19.28
64600;BMP280;6553;48.412;9.514;2024-03-02T03:08:54;71602.88;;;19.30
64600;BMP280;6553;48.412;9.514;2024-03-02T03:11:20;71603.44;;;19.30
64600;BMP280;6553;48.412;9.514;2024-03-02T03:13:48;71602.34;;;19.29
64600;BMP280;6553;48.412;9.514;2024-03-02T03:16:13;71601.72;;;19.31
64600;BMP280;6553;48.412;9.514;2024-03-02T03:18:39;71602.34;;;19.29
64600;BMP280;6553;48.412;9.514;2024-03-02T03:21:05;71599.06;;;19.29
64600;BMP280;6553;48.412;9.514;2024-03-02T03:23:31;71602.88;;;19.30
64600;BMP280;6553;48.412;9.514;2024-03-02T03:25:56;71605.66;;;19.30
64600;BMP280;6553;48.412;9.514;2024-03-02T03:28:22;71608.44;;;19.30
64600;BMP280;6553;48.412;9.514;2024-03-02T03:30:48;71607.78;;;19.32
64600;BMP280;6553;48.412;9.514;2024-03-02T03:33:14;71607.78;;;19.32
64600;BMP280;6553;48.412;9.514;2024-03-02T03:35:39;71608.97;;;19.30
64600;BMP280;6553;48.412;9.514;2024-03-02T03:38:05;71600.75;;;19.28
64600;BMP280;6553;48.412;9.514;2024-03-02T03:40:31;71606.06;;;19.33
64600;BMP280;6553;48.412;9.514;2024-03-02T03:42:56;71603.44;;;19.30
64600;BMP280;6553;48.412;9.514;2024-03-02T03:45:22;71604.06;;;19.28
64600;BMP280;6553;48.412;9.514;2024-03-02T03:47:48;71601.94;;;19.26
64600;BMP280;6553;48.412;9.514;2024-03-02T03:50:14;71605.66;;;19.30
64600;BMP280;6553;48.412;9.514;2024-03-02T03:52:39;71606.72;;;19.31
64600;BMP280;6553;48.412;9.514;2024-03-02T03:55:05;71599.59;;;19.29
64600;BMP280;6553;48.412;9.514;2024-03-02T03:57:31;71600.13;;;19.30
64600;BMP280;6553;48.412;9.514;2024-03-02T03:59:57;71604.06;;;19.28
64600;BMP280;6553;48.412;9.514;2024-03-02T04:02:23;71599.72;;;19.27
64600;BMP280;6553;48.412;9.514;2024-03-02T04:04:50;71597.47;;;19.27
64600;BMP280;6553;48.412;9.514;2024-03-02T04:07:16;71604.59;;;19.29
64600;BMP280;6553;48.412;9.514;2024-03-02T04:09:41;71605.66;;;19.30
64600;BMP280;6553;48.412;9.514;2024-03-02T04:12:07;71601.28;;;19.28
64600;BMP280;6553;48.412;9.514;2024-03-02T04:14:33;71600.88;;;19.25
64600;BMP280;6553;48.412;9.514;2024-03-02T04:16:59;71600.88;;;19.25
64600;BMP280;6553;48.412;9.514;2024-03-02T04:19:24;71600.88;;;19.25
64600;BMP280;6553;48.412;9.514;2024-03-02T04:21:50;71598.00;;;19.28
64600;BMP280;6553;48.412;9.514;2024-03-02T04:24:16;71599.72;;;19.27
64600;BMP280;6553;48.412;9.514;2024-03-02T04:26:41;71595.47;;;19.23
64600;BMP280;6553;48.412;9.514;2024-03-02T04:29:07;71596.41;;;19.26
64600;BMP280;6553;48.412;9.514;2024-03-02T04:31:33;71598.00;;;19.28
64600;BMP280;6553;48.412;9.514;2024-03-02T04:33:59;71607.34;;;19.29
64600;BMP280;6553;48.412;9.514;2024-03-02T04:36:24;71605.13;;;19.29
64600;BMP280;6553;48.412;9.514;2024-03-02T04:38:50;71598.00;;;19.28
64600;BMP280;6553;48.412;9.514;2024-03-02T04:41:16;71603.53;;;19.28
64600;BMP280;6553;48.412;9.514;2024-03-02T04:43:42;71599.72;;;19.27
64600;BMP280;6553;48.412;9.514;2024-03-02T04:46:08;71605.66;;;19.30
64600;BMP280;6553;48.412;9.514;2024-03-02T04:48:34;71606.31;;;19.28
64600;BMP280;6553;48.412;9.514;2024-03-02T04:50:59;71601.94;;;19.26
64600;BMP280;6553;48.412;9.514;2024-03-02T04:53:25;71598.66;;;19.26
64600;BMP280;6553;48.412;9.514;2024-03-02T04:55:51;71601.81;;;19.29
64600;BMP280;6553;48.412;9.514;2024-03-02T04:58:19;71604.06;;;19.28
64600;BMP280;6553;48.412;9.514;2024-03-02T05:00:45;71595.34;;;19.25
64600;BMP280;6553;48.412;9.514;2024-03-02T05:03:12;71603.53;;;19.28
64600;BMP280;6553;48.412;9.514;2024-03-02T05:05:38;71601.94;;;19.26
64600;BMP280;6553;48.412;9.514;2024-03-02T05:08:04;71595.88;;;19.26
64600;BMP280;6553;48.412;9.514;2024-03-02T05:10:30;71601.41;;;19.26
64600;BMP280;6553;48.412;9.514;2024-03-02T05:12:56;71603.53;;;19.28
64600;BMP280;6553;48.412;9.514;2024-03-02T05:15:22;71604.72;;;19.26
64600;BMP280;6553;48.412;9.514;2024-03-02T05:17:48;71606.31;;;19.28
64600;BMP280;6553;48.412;9.514;2024-03-02T05:20:14;71593.75;;;19.24
64600;BMP280;6553;48.412;9.514;2024-03-02T05:22:40;71598.09;;;19.25
64600;BMP280;6553;48.412;9.514;2024-03-02T05:25:07;71603.03;;;19.27
64600;BMP280;6553;48.412;9.514;2024-03-02T05:27:33;71601.28;;;19.28
64600;BMP280;6553;48.412;9.514;2024-03-02T05:29:59;71599.72;;;19.27
64600;BMP280;6553;48.412;9.514;2024-03-02T05:32:25;71598.66;;;19.26
64600;BMP280;6553;48.412;9.514;2024-03-02T05:34:51;71598.00;;;19.28
64600;BMP280;6553;48.412;9.514;2024-03-02T05:37:17;71603.53;;;19.28
64600;BMP280;6553;48.412;9.514;2024-03-02T05:39:43;71603.03;;;19.27
64600;BMP280;6553;48.412;9.514;2024-03-02T05:42:09;71598.50;;;19.28
64600;BMP280;6553;48.412;9.514;2024-03-02T05:44:36;71597.56;;;19.25
64600;BMP280;6553;48.412;9.514;2024-03-02T05:47:02;71596.53;;;19.24
64600;BMP280;6553;48.412;9.514;2024-03-02T05:49:28;71599.28;;;19.24
64600;BMP280;6553;48.412;9.514;2024-03-02T05:51:54;71594.28;;;19.24
64600;BMP280;6553;48.412;9.514;2024-03-02T05:54:20;71606.94;;;19.26
64600;BMP280;6553;48.412;9.514;2024-03-02T05:56:45;71599.28;;;19.24
64600;BMP280;6553;48.412;9.514;2024-03-02T05:59:11;71598.09;;;19.25
64600;BMP280;6553;48.412;9.514;2024-03-02T06:01:46;71593.75;;;19.24
64600;BMP280;6553;48.412;9.514;2024-03-02T06:04:13;71593.75;;;19.24
64600;BMP280;6553;48.412;9.514;2024-03-02T06:06:39;71598.75;;;19.23
64600;BMP280;6553;48.412;9.514;2024-03-02T06:09:06;71599.19;;;19.26
64600;BMP280;6553;48.412;9.514;2024-03-02T06:11:40;71597.56;;;19.25
64600;BMP280;6553;48.412;9.514;2024-03-02T06:14:07;71599.72;;;19.27
64600;BMP280;6553;48.412;9.514;2024-03-02T06:16:34;71603.63;;;19.25
64600;BMP280;6553;48.412;9.514;2024-03-02T06:19:00;71603.03;;;19.27
64600;BMP280;6553;48.412;9.514;2024-03-02T06:21:27;71601.94;;;19.26
64600;BMP280;6553;48.412;9.514;2024-03-02T06:23:53;71594.28;;;19.24
64600;BMP280;6553;48.412;9.514;2024-03-02T06:26:20;71603.53;;;19.28
64600;BMP280;6553;48.412;9.514;2024-03-02T06:28:46;71601.28;;;19.28
64600;BMP280;6553;48.412;9.514;2024-03-02T06:31:12;71595.88;;;19.26
64600;BMP280;6553;48.412;9.514;2024-03-02T06:33:38;71593.84;;;19.21
64600;BMP280;6553;48.412;9.514;2024-03-02T06:36:04;71597.56;;;19.25
64600;BMP280;6553;48.412;9.514;2024-03-02T06:38:30;71593.22;;;19.23
64600;BMP280;6553;48.412;9.514;2024-03-02T06:40:57;71600.34;;;19.25
64600;BMP280;6553;48.412;9.514;2024-03-02T06:43:24;71599.81;;;19.24
64600;BMP280;6553;48.412;9.514;2024-03-02T06:45:51;71594.81;;;19.25
64600;BMP280;6553;48.412;9.514;2024-03-02T06:48:17;71598.66;;;19.26
64600;BMP280;6553;48.412;9.514;2024-03-02T06:50:49;71598.00;;;19.28
64600;BMP280;6553;48.412;9.514;2024-03-02T06:53:16;71595.47;;;19.23
64600;BMP280;6553;48.412;9.514;2024-03-02T06:55:46;71603.53;;;19.28
64600;BMP280;6553;48.412;9.514;2024-03-02T06:58:15;71599.72;;;19.27
64600;BMP280;6553;48.412;9.514;2024-03-02T07:00:44;71598.50;;;19.28
64600;BMP280;6553;48.412;9.514;2024-03-02T07:03:10;71600.75;;;19.28
64600;BMP280;6553;48.412;9.514;2024-03-02T07:05:36;71608.00;;;19.27
64600;BMP280;6553;48.412;9.514;2024-03-02T07:08:02;71598.00;;;19.28
64600;BMP280;6553;48.412;9.514;2024-03-02T07:10:29;71600.25;;;19.27
64600;BMP280;6553;48.412;9.514;2024-03-02T07:12:54;71603.53;;;19.28
64600;BMP280;6553;48.412;9.514;2024-03-02T07:15:20;71600.88;;;19.25
64600;BMP280;6553;48.412;9.514;2024-03-02T07:18:06;71601.41;;;19.26
64600;BMP280;6553;48.412;9.514;2024-03-02T07:20:32;71602.47;;;19.27
64600;BMP280;6553;48.412;9.514;2024-03-02T07:22:58;71605.13;;;19.29
64600;BMP280;6553;48.412;9.514;2024-03-02T07:25:23;71603.53;;;19.28
64600;BMP280;6553;48.412;9.514;2024-03-02T07:27:50;71600.88;;;19.25
64600;BMP280;6553;48.412;9.514;2024-03-02T07:30:16;71603.03;;;19.27
64600;BMP280;6553;48.412;9.514;2024-03-02T07:32:42;71596.94;;;19.27
64600;BMP280;6553;48.412;9.514;2024-03-02T07:35:14;71598.50;;;19.28
64600;BMP280;6553;48.412;9.514;2024-03-02T07:37:42;71603.97;;;19.31
64600;BMP280;6553;48.412;9.514;2024-03-02T07:40:09;71604.50;;;19.31
64600;BMP280;6553;48.412;9.514;2024-03-02T07:42:41;71606.72;;;19.31
64600;BMP280;6553;48.412;9.514;2024-03-02T07:45:07;71602.88;;;19.30
64600;BMP280;6553;48.412;9.514;2024-03-02T07:47:34;71605.44;;;19.35
64600;BMP280;6553;48.412;9.514;2024-03-02T07:50:00;71609.38;;;19.33
64600;BMP280;6553;48.412;9.514;2024-03-02T07:52:26;71608.22;;;19.35
64600;BMP280;6553;48.412;9.514;2024-03-02T07:54:52;71604.38;;;19.34
64600;BMP280;6553;48.412;9.514;2024-03-02T07:57:17;71609.66;;;19.39
64600;BMP280;6553;48.412;9.514;2024-03-02T07:59:43;71614.66;;;19.38
64600;BMP280;6553;48.412;9.514;2024-03-02T08:02:09;71608.63;;;19.38
64600;BMP280;6553;48.412;9.514;2024-03-02T08:04:35;71611.28;;;19.40
64600;BMP280;6553;48.412;9.514;2024-03-02T08:07:02;71620.09;;;19.41
64600;BMP280;6553;48.412;9.514;2024-03-02T08:09:28;71616.69;;;19.43
64600;BMP280;6553;48.412;9.514;2024-03-02T08:11:54;71619.47;;;19.43
64600;BMP280;6553;48.412;9.514;2024-03-02T08:14:20;71620.41;;;19.46
64600;BMP280;6553;48.412;9.514;2024-03-02T08:16:46;71616.06;;;19.45
64600;BMP280;6553;48.412;9.514;2024-03-02T08:19:11;71619.88;;;19.46
64600;BMP280;6553;48.412;9.514;2024-03-02T08:21:37;71618.84;;;19.45
64600;BMP280;6553;48.412;9.514;2024-03-02T08:24:03;71620.94;;;19.47
64600;BMP280;6553;48.412;9.514;2024-03-02T08:26:29;71622.09;;;19.45
64600;BMP280;6553;48.412;9.514;2024-03-02T08:28:58;71615.53;;;19.44
64600;BMP280;6553;48.412;9.514;2024-03-02T08:31:24;71623.72;;;19.47
64600;BMP280;6553;48.412;9.514;2024-03-02T08:33:49;71620.28;;;19.49
64600;BMP280;6553;48.412;9.514;2024-03-02T08:36:15;71623.72;;;19.47
64600;BMP280;6553;48.412;9.514;2024-03-02T08:38:41;71622.63;;;19.46
64600;BMP280;6553;48.412;9.514;2024-03-02T08:41:07;71623.16;;;19.46
64600;BMP280;6553;48.412;9.514;2024-03-02T08:43:34;71617.75;;;19.44
64600;BMP280;6553;48.412;9.514;2024-03-02T08:45:59;71623.72;;;19.47
64600;BMP280;6553;48.412;9.514;2024-03-02T08:48:25;71619.34;;;19.45
64600;BMP280;6553;48.412;9.514;2024-03-02T08:50:51;71616.56;;;19.45
64600;BMP280;6553;48.412;9.514;2024-03-02T08:53:17;71618.72;;;19.47
64600;BMP280;6553;48.412;9.514;2024-03-02T08:55:46;71629.03;;;19.52
64600;BMP280;6553;48.412;9.514;2024-03-02T08:58:12;71627.97;;;19.51
64600;BMP280;6553;48.412;9.514;2024-03-02T09:00:38;71629.03;;;19.52
64600;BMP280;6553;48.412;9.514;2024-03-02T09:03:04;71628.91;;;19.54
64600;BMP280;6553;48.412;9.514;2024-03-02T09:05:30;71630.50;;;19.56
64600;BMP280;6553;48.412;9.514;2024-03-02T09:07:55;71636.44;;;19.59
64600;BMP280;6553;48.412;9.514;2024-03-02T09:10:21;71632.19;;;19.55
64600;BMP280;6553;48.412;9.514;2024-03-02T09:12:47;71622.63;;;19.46
64600;BMP280;6553;48.412;9.514;2024-03-02T09:15:13;71622.97;;;19.51
64600;BMP280;6553;48.412;9.514;2024-03-02T09:17:38;71631.56;;;19.57
64600;BMP280;6553;48.412;9.514;2024-03-02T09:20:05;71633.25;;;19.56
64600;BMP280;6553;48.412;9.514;2024-03-02T09:22:31;71631.03;;;19.56
64600;BMP280;6553;48.412;9.514;2024-03-02T09:24:57;71635.41;;;19.58
64600;BMP280;6553;48.412;9.514;2024-03-02T09:27:24;71637.63;;;19.57
64600;BMP280;6553;48.412;9.514;2024-03-02T09:29:49;71629.88;;;19.58
64600;BMP280;6553;48.412;9.514;2024-03-02T09:32:15;71635.91;;;19.58
64600;BMP280;6553;48.412;9.514;2024-03-02T09:34:41;71634.19;;;19.59
64600;BMP280;6553;48.412;9.514;2024-03-02T09:37:07;71634.19;;;19.59
64600;BMP280;6553;48.412;9.514;2024-03-02T09:39:33;71631.44;;;19.59
64600;BMP280;6553;48.412;9.514;2024-03-02T09:42:00;71639.66;;;19.62
64600;BMP280;6553;48.412;9.514;2024-03-02T09:44:26;71638.56;;;19.61
64600;BMP280;6553;48.412;9.514;2024-03-02T09:46:52;71638.56;;;19.61
64600;BMP280;6553;48.412;9.514;2024-03-02T09:49:18;71634.97;;;19.55
64600;BMP280;6553;48.412;9.514;2024-03-02T09:51:48;71641.75;;;19.64
64600;BMP280;6553;48.412;9.514;2024-03-02T09:54:16;71640.69;;;19.63
64600;BMP280;6553;48.412;9.514;2024-03-02T09:56:42;71639.66;;;19.62
64600;BMP280;6553;48.412;9.514;2024-03-02T09:59:08;71639.66;;;19.62
64600;BMP280;6553;48.412;9.514;2024-03-02T10:01:33;71641.34;;;19.61
64600;BMP280;6553;48.412;9.514;2024-03-02T10:04:00;71642.50;;;19.59
64600;BMP280;6553;48.412;9.514;2024-03-02T10:06:28;71637.41;;;19.63
64600;BMP280;6553;48.412;9.514;2024-03-02T10:08:55;71639.66;;;19.62
64600;BMP280;6553;48.412;9.514;2024-03-02T10:11:32;71640.69;;;19.63
64600;BMP280;6553;48.412;9.514;2024-03-02T10:16:42;71636.75;;;19.65
64600;BMP280;6553;48.412;9.514;2024-03-02T10:19:22;71640.16;;;19.63
64600;BMP280;6553;48.412;9.514;2024-03-02T10:21:50;71639.00;;;19.64
64600;BMP280;6553;48.412;9.514;2024-03-02T10:24:18;71641.75;;;19.64
64600;BMP280;6553;48.412;9.514;2024-03-02T10:26:44;71641.22;;;19.63
64600;BMP280;6553;48.412;9.514;2024-03-02T10:29:11;71641.66;;;19.67
64600;BMP280;6553;48.412;9.514;2024-03-02T10:31:42;71639.53;;;19.65
64600;BMP280;6553;48.412;9.514;2024-03-02T10:34:10;71639.41;;;19.67
64600;BMP280;6553;48.412;9.514;2024-03-02T10:36:37;71639.53;;;19.65
64600;BMP280;6553;48.412;9.514;2024-03-02T10:39:05;71636.22;;;19.64
64600;BMP280;6553;48.412;9.514;2024-03-02T10:41:35;71645.47;;;19.68
64600;BMP280;6553;48.412;9.514;2024-03-02T10:44:07;71641.75;;;19.64
64600;BMP280;6553;48.412;9.514;2024-03-02T10:46:36;71644.94;;;19.67
64600;BMP280;6553;48.412;9.514;2024-03-02T10:49:04;71643.78;;;19.69
64600;BMP280;6553;48.412;9.514;2024-03-02T10:51:32;71643.78;;;19.69
64600;BMP280;6553;48.412;9.514;2024-03-02T10:54:00;71638.38;;;19.66
64600;BMP280;6553;48.412;9.514;2024-03-02T10:56:40;71643.25;;;19.68
64600;BMP280;6553;48.412;9.514;2024-03-02T10:59:20;71645.47;;;19.68
64600;BMP280;6553;48.412;9.514;2024-03-02T11:01:50;71643.25;;;19.68
64600;BMP280;6553;48.412;9.514;2024-03-02T11:04:18;71643.78;;;19.69
64600;BMP280;6553;48.412;9.514;2024-03-02T11:07:06;71646.00;;;19.68
64600;BMP280;6553;48.412;9.514;2024-03-02T11:09:41;71645.47;;;19.68
64600;BMP280;6553;48.412;9.514;2024-03-02T11:12:19;71647.63;;;19.70
64600;BMP280;6553;48.412;9.514;2024-03-02T11:14:50;71646.00;;;19.68
64600;BMP280;6553;48.412;9.514;2024-03-02T11:17:18;71642.28;;;19.65
64600;BMP280;6553;48.412;9.514;2024-03-02T11:19:44;71638.88;;;19.67
64600;BMP280;6553;48.412;9.514;2024-03-02T11:22:15;71646.00;;;19.68
64600;BMP280;6553;48.412;9.514;2024-03-02T11:24:49;71642.06;;;19.70
64600;BMP280;6553;48.412;9.514;2024-03-02T11:33:05;71639.41;;;19.67
64600;BMP280;6553;48.412;9.514;2024-03-02T11:35:37;71646.00;;;19.68
64600;BMP280;6553;48.412;9.514;2024-03-02T11:38:03;71643.25;;;19.68
64600;BMP280;6553;48.412;9.514;2024-03-02T11:40:30;71649.84;;;19.69
64600;BMP280;6553;48.412;9.514;2024-03-02T11:43:00;71640.59;;;19.66
64600;BMP280;6553;48.412;9.514;2024-03-02T11:45:29;71646.00;;;19.68
64600;BMP280;6553;48.412;9.514;2024-03-02T11:47:57;71642.06;;;19.70
64600;BMP280;6553;48.412;9.514;2024-03-02T11:50:36;71647.06;;;19.69
64600;BMP280;6553;48.412;9.514;2024-03-02T11:53:06;71644.84;;;19.70
64600;BMP280;6553;48.412;9.514;2024-03-02T11:55:36;71646.53;;;19.69
64600;BMP280;6553;48.412;9.514;2024-03-02T11:58:05;71646.41;;;19.71
64600;BMP280;6553;48.412;9.514;2024-03-02T12:00:31;71643.78;;;19.69
64600;BMP280;6553;48.412;9.514;2024-03-02T12:05:27;71646.53;;;19.69
64600;BMP280;6553;48.412;9.514;2024-03-02T12:07:58;71642.16;;;19.67
64600;BMP280;6553;48.412;9.514;2024-03-02T12:10:28;71641.13;;;19.66
64600;BMP280;6553;48.412;9.514;2024-03-02T12:13:05;71642.59;;;19.70
64600;BMP280;6553;48.412;9.514;2024-03-02T12:15:37;71642.06;;;19.70
64600;BMP280;6553;48.412;9.514;2024-03-02T12:18:05;71648.13;;;19.70
64600;BMP280;6553;48.412;9.514;2024-03-02T12:20:32;71651.44;;;19.71
64600;BMP280;6553;48.412;9.514;2024-03-02T12:23:01;71648.66;;;19.71
64600;BMP280;6553;48.412;9.514;2024-03-02T12:25:30;71648.25;;;19.68
64600;BMP280;6553;48.412;9.514;2024-03-02T12:27:58;71651.31;;;19.73
64600;BMP280;6553;48.412;9.514;2024-03-02T12:30:29;71650.25;;;19.72
64600;BMP280;6553;48.412;9.514;2024-03-02T12:32:55;71647.63;;;19.70
64600;BMP280;6553;48.412;9.514;2024-03-02T12:35:20;71638.44;;;19.63
64600;BMP280;6553;48.412;9.514;2024-03-02T12:37:51;71647.69;;;19.67
64600;BMP280;6553;48.412;9.514;2024-03-02T12:40:19;71643.66;;;19.71
64600;BMP280;6553;48.412;9.514;2024-03-02T12:42:46;71649.19;;;19.71
64600;BMP280;6553;48.412;9.514;2024-03-02T12:45:13;71643.66;;;19.71
64600;BMP280;6553;48.412;9.514;2024-03-02T12:47:42;71646.53;;;19.69
64600;BMP280;6553;48.412;9.514;2024-03-02T12:50:09;71646.00;;;19.68
64600;BMP280;6553;48.412;9.514;2024-03-02T12:52:35;71644.84;;;19.70
64600;BMP280;6553;48.412;9.514;2024-03-02T12:55:04;71643.78;;;19.69
64600;BMP280;6553;48.412;9.514;2024-03-02T12:57:32;71643.38;;;19.66
64600;BMP280;6553;48.412;9.514;2024-03-02T13:00:04;71647.06;;;19.69
64600;BMP280;6553;48.412;9.514;2024-03-02T13:02:41;71648.13;;;19.70
64600;BMP280;6553;48.412;9.514;2024-03-02T13:05:08;71649.19;;;19.71
64600;BMP280;6553;48.412;9.514;2024-03-02T13:07:38;71646.53;;;19.69
64600;BMP280;6553;48.412;9.514;2024-03-02T13:10:05;71647.06;;;19.69
64600;BMP280;6553;48.412;9.514;2024-03-02T13:12:33;71645.38;;;19.70
64600;BMP280;6553;48.412;9.514;2024-03-02T13:14:59;71646.00;;;19.68
64600;BMP280;6553;48.412;9.514;2024-03-02T13:17:24;71648.13;;;19.70
64600;BMP280;6553;48.412;9.514;2024-03-02T13:19:58;71645.38;;;19.70
64600;BMP280;6553;48.412;9.514;2024-03-02T13:22:25;71650.91;;;19.70
64600;BMP280;6553;48.412;9.514;2024-03-02T13:24:52;71644.84;;;19.70
64600;BMP280;6553;48.412;9.514;2024-03-02T13:27:20;71644.31;;;19.69
64600;BMP280;6553;48.412;9.514;2024-03-02T13:29:47;71649.19;;;19.71
64600;BMP280;6553;48.412;9.514;2024-03-02T13:32:14;71642.59;;;19.70
64600;BMP280;6553;48.412;9.514;2024-03-02T13:34:40;71641.53;;;19.69
64600;BMP280;6553;48.412;9.514;2024-03-02T13:37:06;71643.25;;;19.68
64600;BMP280;6553;48.412;9.514;2024-03-02T13:39:32;71642.06;;;19.70
64600;BMP280;6553;48.412;9.514;2024-03-02T13:42:00;71652.50;;;19.72
64600;BMP280;6553;48.412;9.514;2024-03-02T13:44:31;71643.66;;;19.71
64600;BMP280;6553;48.412;9.514;2024-03-02T13:47:00;71646.94;;;19.72
64600;BMP280;6553;48.412;9.514;2024-03-02T13:49:26;71649.19;;;19.71
64600;BMP280;6553;48.412;9.514;2024-03-02T13:52:00;71643.25;;;19.68
64600;BMP280;6553;48.412;9.514;2024-03-02T13:54:29;71649.19;;;19.71
64600;BMP280;6553;48.412;9.514;2024-03-02T13:56:56;71646.53;;;19.69
64600;BMP280;6553;48.412;9.514;2024-03-02T13:59:25;71645.91;;;19.71
64600;BMP280;6553;48.412;9.514;2024-03-02T14:01:51;71645.91;;;19.71
64600;BMP280;6553;48.412;9.514;2024-03-02T14:04:16;71650.25;;;19.72
64600;BMP280;6553;48.412;9.514;2024-03-02T14:06:43;71649.19;;;19.71
64600;BMP280;6553;48.412;9.514;2024-03-02T14:09:09;71638.38;;;19.66
64600;BMP280;6553;48.412;9.514;2024-03-02T14:11:35;71643.66;;;19.71
64600;BMP280;6553;48.412;9.514;2024-03-02T14:14:01;71641.00;;;19.69
64600;BMP280;6553;48.412;9.514;2024-03-02T14:16:28;71646.94;;;19.72
64600;BMP280;6553;48.412;9.514;2024-03-02T14:18:54;71644.72;;;19.72
64600;BMP280;6553;48.412;9.514;2024-03-02T14:21:19;71644.31;;;19.69
64600;BMP280;6553;48.412;9.514;2024-03-02T14:23:45;71647.63;;;19.70
64600;BMP280;6553;48.412;9.514;2024-03-02T14:26:11;71644.19;;;19.72
64600;BMP280;6553;48.412;9.514;2024-03-02T14:28:37;71644.31;;;19.69
64600;BMP280;6553;48.412;9.514;2024-03-02T14:31:03;71632.50;;;19.60
64600;BMP280;6553;48.412;9.514;2024-03-02T14:33:28;71646.00;;;19.68
64600;BMP280;6553;48.412;9.514;2024-03-02T14:35:54;71644.31;;;19.69
64600;BMP280;6553;48.412;9.514;2024-03-02T14:38:20;71648.66;;;19.71